createdAt,value
2024-03-30T00:00:33.001Z,28.6
2024-03-30T00:01:35.337Z,28.7
2024-03-30T00:02:37.751Z,28.6
2024-03-30T00:03:40.174Z,28.7
2024-03-30T00:04:42.594Z,28.8
2024-03-30T00:05:45.195Z,28.7
2024-03-30T00:06:47.450Z,28.6
2024-03-30T00:07:49.937Z,28.6
2024-03-30T00:08:52.359Z,28.6
2024-03-30T00:09:54.757Z,28.5
2024-03-30T00:10:57.152Z,28.8
2024-03-30T00:11:59.561Z,29
2024-03-30T00:13:02.035Z,28.9
2024-03-30T00:14:04.425Z,28.7
2024-03-30T00:15:06.841Z,28.7
2024-03-30T00:16:09.246Z,28.5
2024-03-30T00:17:11.733Z,28.8
2024-03-30T00:18:14.217Z,28.9
2024-03-30T00:19:16.790Z,28.9
2024-03-30T00:20:19.211Z,28.7
2024-03-30T00:21:21.440Z,28.6
2024-03-30T00:22:23.918Z,28.5
2024-03-30T00:23:26.346Z,28.5
2024-03-30T00:24:28.749Z,28.7
2024-03-30T00:25:31.137Z,28.9
2024-03-30T00:26:33.356Z,28.9
2024-03-30T00:27:35.741Z,28.9
2024-03-30T00:28:38.262Z,28.9
2024-03-30T00:29:40.482Z,28.7
2024-03-30T00:30:42.968Z,28.8
2024-03-30T00:31:45.384Z,28.7
2024-03-30T00:32:48.048Z,28.6
2024-03-30T00:33:50.754Z,28.7
2024-03-30T00:34:53.262Z,28.4
2024-03-30T00:35:55.749Z,28.2
2024-03-30T00:36:57.973Z,28.4
2024-03-30T00:38:00.367Z,28.7
2024-03-30T00:39:02.862Z,28.8
2024-03-30T00:40:05.290Z,28.9
2024-03-30T00:41:07.546Z,28.8
2024-03-30T00:42:09.965Z,28.7
2024-03-30T00:43:12.009Z,28.6
2024-03-30T00:44:14.442Z,28.6
2024-03-30T00:45:16.863Z,28.7
2024-03-30T00:46:19.295Z,28.9
2024-03-30T00:47:22.998Z,28.9
2024-03-30T00:48:26.963Z,7.1
2024-03-30T00:49:29.174Z,11.1
2024-03-30T00:50:31.587Z,14.3
2024-03-30T00:51:34.005Z,17.3
2024-03-30T00:52:36.429Z,19.3
2024-03-30T00:53:38.662Z,20.8
2024-03-30T00:54:41.098Z,22.5
2024-03-30T00:55:43.585Z,23.7
2024-03-30T00:56:46.013Z,24.7
2024-03-30T00:57:48.330Z,25.5
2024-03-30T00:58:50.562Z,26.2
2024-03-30T00:59:53.059Z,26.6
2024-03-30T01:00:55.516Z,27
2024-03-30T01:01:57.926Z,27.4
2024-03-30T01:03:00.126Z,27.6
2024-03-30T01:04:02.608Z,27.8
2024-03-30T01:05:04.878Z,28.2
2024-03-30T01:06:07.272Z,28.4
2024-03-30T01:07:09.680Z,28.7
2024-03-30T01:08:11.913Z,28.5
2024-03-30T01:09:14.299Z,28.6
2024-03-30T01:10:16.560Z,28.4
2024-03-30T01:11:19.107Z,28.3
2024-03-30T01:12:21.538Z,28.2
2024-03-30T01:13:23.612Z,28.2
2024-03-30T01:14:26.010Z,28.4
2024-03-30T01:15:28.504Z,28.5
2024-03-30T01:16:30.946Z,28.5
2024-03-30T01:17:33.395Z,28.6
2024-03-30T01:18:35.868Z,28.6
2024-03-30T01:19:38.113Z,28.6
2024-03-30T01:20:40.549Z,28.9
2024-03-30T01:21:42.772Z,29
2024-03-30T01:22:45.409Z,28.9
2024-03-30T01:23:47.896Z,28.8
2024-03-30T01:24:50.411Z,28.7
2024-03-30T01:25:52.836Z,28.6
2024-03-30T01:26:55.269Z,28.6
2024-03-30T01:27:57.657Z,28.7
2024-03-30T01:29:00.090Z,28.5
2024-03-30T01:30:02.320Z,28.6
2024-03-30T01:31:04.566Z,28.7
2024-03-30T01:32:07.025Z,28.6
2024-03-30T01:33:09.500Z,28.4
2024-03-30T01:34:11.960Z,28.6
2024-03-30T01:35:14.224Z,28.4
2024-03-30T01:36:16.625Z,28.6
2024-03-30T01:37:19.066Z,28.7
2024-03-30T01:38:21.448Z,28.7
2024-03-30T01:39:23.923Z,28.9
2024-03-30T01:40:26.141Z,28.8
2024-03-30T01:41:28.579Z,29
2024-03-30T01:42:30.974Z,28.8
2024-03-30T01:43:33.176Z,28.9
2024-03-30T01:44:35.589Z,28.8
2024-03-30T01:45:38.032Z,28.9
2024-03-30T01:46:40.240Z,28.7
2024-03-30T01:47:42.710Z,28.5
2024-03-30T01:48:45.127Z,28.3
2024-03-30T01:49:47.547Z,28.2
2024-03-30T01:50:50.016Z,28.3
2024-03-30T01:51:52.568Z,28.4
2024-03-30T01:52:54.966Z,28.4
2024-03-30T01:53:57.363Z,28.7
2024-03-30T01:54:59.584Z,28.8
2024-03-30T01:56:01.600Z,28.9
2024-03-30T01:57:03.869Z,28.9
2024-03-30T01:58:06.076Z,28.8
2024-03-30T01:59:08.462Z,28.8
2024-03-30T02:00:10.867Z,28.8
2024-03-30T02:01:13.065Z,28.6
2024-03-30T02:02:15.294Z,28.4
2024-03-30T02:03:17.735Z,28.4
2024-03-30T02:04:20.188Z,28.6
2024-03-30T02:05:22.604Z,28.7
2024-03-30T02:06:25.008Z,28.6
2024-03-30T02:07:27.403Z,28.5
2024-03-30T02:08:29.796Z,28.5
2024-03-30T02:09:32.262Z,28.5
2024-03-30T02:10:34.477Z,28.4
2024-03-30T02:11:36.922Z,28.4
2024-03-30T02:12:39.526Z,28.4
2024-03-30T02:13:41.943Z,28.5
2024-03-30T02:14:44.371Z,28.6
2024-03-30T02:15:46.761Z,28.6
2024-03-30T02:16:49.157Z,28.6
2024-03-30T02:17:51.619Z,28.6
2024-03-30T02:18:54.256Z,28.7
2024-03-30T02:19:56.659Z,28.9
2024-03-30T02:20:59.143Z,29
2024-03-30T02:22:01.620Z,29.1
2024-03-30T02:23:04.031Z,29.3
2024-03-30T02:24:06.254Z,29.3
2024-03-30T02:25:08.706Z,29.2
2024-03-30T02:26:10.917Z,28.8
2024-03-30T02:27:13.322Z,28.9
2024-03-30T02:28:15.797Z,29.2
2024-03-30T02:29:18.449Z,29.2
2024-03-30T02:30:20.871Z,29.4
2024-03-30T02:31:23.284Z,29.2
2024-03-30T02:32:25.824Z,29.3
2024-03-30T02:33:28.329Z,29.4
2024-03-30T02:34:30.769Z,29.2
2024-03-30T02:35:33.195Z,29.1
2024-03-30T02:36:35.670Z,29.3
2024-03-30T02:37:38.140Z,29.4
2024-03-30T02:38:40.367Z,29.4
2024-03-30T02:39:42.824Z,29.5
2024-03-30T02:40:45.239Z,29.3
2024-03-30T02:41:47.657Z,29.2
2024-03-30T02:42:50.159Z,28.9
2024-03-30T02:43:52.643Z,28.8
2024-03-30T02:44:55.073Z,28.5
2024-03-30T02:45:57.640Z,28.6
2024-03-30T02:46:59.935Z,28.8
2024-03-30T02:48:02.400Z,28.9
2024-03-30T02:49:04.833Z,29
2024-03-30T02:50:07.302Z,28.8
2024-03-30T02:51:09.711Z,28.7
2024-03-30T02:52:12.273Z,29
2024-03-30T02:53:14.551Z,28.9
2024-03-30T02:54:16.988Z,28.9
2024-03-30T02:55:19.211Z,28.7
2024-03-30T02:56:21.634Z,28.7
2024-03-30T02:57:24.046Z,28.8
2024-03-30T02:58:26.330Z,28.7
2024-03-30T02:59:28.769Z,28.7
2024-03-30T03:00:31.222Z,28.8
2024-03-30T03:01:33.551Z,28.8
2024-03-30T03:02:35.960Z,28.8
2024-03-30T03:03:38.336Z,28.7
2024-03-30T03:04:40.751Z,28.7
2024-03-30T03:05:43.171Z,28.7
2024-03-30T03:06:45.594Z,28.5
2024-03-30T03:07:48.047Z,28.6
2024-03-30T03:08:50.484Z,28.5
2024-03-30T03:09:53.132Z,28.7
2024-03-30T03:10:55.563Z,28.7
2024-03-30T03:11:58.081Z,28.8
2024-03-30T03:13:00.495Z,28.6
2024-03-30T03:14:02.755Z,28.6
2024-03-30T03:15:05.068Z,28.6
2024-03-30T03:16:07.477Z,28.7
2024-03-30T03:17:09.709Z,28.8
2024-03-30T03:18:12.101Z,29.1
2024-03-30T03:19:14.517Z,29.2
2024-03-30T03:20:17.004Z,29.4
2024-03-30T03:21:19.495Z,29.3
2024-03-30T03:22:21.905Z,29.3
2024-03-30T03:23:24.464Z,29.5
2024-03-30T03:24:26.922Z,29.3
2024-03-30T03:25:29.348Z,29.2
2024-03-30T03:26:31.796Z,29.3
2024-03-30T03:27:34.220Z,29.3
2024-03-30T03:28:36.647Z,29.1
2024-03-30T03:29:39.038Z,29.1
2024-03-30T03:30:41.859Z,29.2
2024-03-30T03:31:44.066Z,29.1
2024-03-30T03:32:46.498Z,28.9
2024-03-30T03:33:49.002Z,28.8
2024-03-30T03:34:51.384Z,28.7
2024-03-30T03:35:53.793Z,28.8
2024-03-30T03:36:56.979Z,28.9
2024-03-30T03:37:59.438Z,28.7
2024-03-30T03:39:01.448Z,28.7
2024-03-30T03:40:03.987Z,28.8
2024-03-30T03:41:06.387Z,28.7
2024-03-30T03:42:08.806Z,28.8
2024-03-30T03:43:11.025Z,28.9
2024-03-30T03:44:13.453Z,28.7
2024-03-30T03:45:15.844Z,28.6
2024-03-30T03:46:18.261Z,28.7
2024-03-30T03:47:20.705Z,28.8
2024-03-30T03:48:23.187Z,28.7
2024-03-30T03:49:25.588Z,28.8
2024-03-30T03:50:28.092Z,28.5
2024-03-30T03:51:30.506Z,28.6
2024-03-30T03:52:33.017Z,28.7
2024-03-30T03:53:35.452Z,28.9
2024-03-30T03:54:37.906Z,28.8
2024-03-30T03:55:40.321Z,28.9
2024-03-30T03:56:42.750Z,28.8
2024-03-30T03:57:45.140Z,28.8
2024-03-30T03:58:47.129Z,28.6
2024-03-30T03:59:49.404Z,28.7
2024-03-30T04:00:51.898Z,28.8
2024-03-30T04:01:54.323Z,28.9
2024-03-30T04:02:56.791Z,28.9
2024-03-30T04:03:59.354Z,28.9
2024-03-30T04:05:01.581Z,28.9
2024-03-30T04:06:04.044Z,28.8
2024-03-30T04:07:06.441Z,28.8
2024-03-30T04:08:08.991Z,28.9
2024-03-30T04:09:11.386Z,28.7
2024-03-30T04:10:14.005Z,28.5
2024-03-30T04:11:16.461Z,28.8
2024-03-30T04:12:18.876Z,28.6
2024-03-30T04:13:21.279Z,28.5
2024-03-30T04:14:23.469Z,28.7
2024-03-30T04:15:25.900Z,28.7
2024-03-30T04:16:28.357Z,28.9
2024-03-30T04:17:36.963Z,7.2
2024-03-30T04:18:39.502Z,11
2024-03-30T04:19:41.915Z,14.2
2024-03-30T04:20:44.341Z,17.1
2024-03-30T04:21:46.751Z,19.1
2024-03-30T04:22:49.142Z,20.9
2024-03-30T04:23:51.625Z,22.5
2024-03-30T04:24:54.010Z,23.8
2024-03-30T04:25:56.199Z,24.6
2024-03-30T04:26:58.645Z,25.5
2024-03-30T04:28:01.199Z,26.3
2024-03-30T04:29:03.621Z,26.7
2024-03-30T04:30:05.921Z,27.2
2024-03-30T04:31:08.149Z,27.5
2024-03-30T04:32:10.530Z,27.7
2024-03-30T04:33:12.954Z,27.8
2024-03-30T04:34:15.340Z,28
2024-03-30T04:35:17.877Z,28.3
2024-03-30T04:36:20.286Z,28.3
2024-03-30T04:37:22.746Z,28.3
2024-03-30T04:38:25.195Z,28.4
2024-03-30T04:39:27.325Z,28.6
2024-03-30T04:40:29.737Z,28.8
2024-03-30T04:41:32.209Z,28.9
2024-03-30T04:42:34.628Z,29
2024-03-30T04:43:37.064Z,29
2024-03-30T04:44:39.481Z,28.9
2024-03-30T04:45:41.942Z,29.1
2024-03-30T04:46:43.944Z,29
2024-03-30T04:47:45.953Z,29.1
2024-03-30T04:48:48.380Z,29.3
2024-03-30T04:49:50.627Z,29.3
2024-03-30T04:50:53.028Z,29.2
2024-03-30T04:51:55.502Z,29.3
2024-03-30T04:52:57.890Z,29.1
2024-03-30T04:54:00.339Z,29
2024-03-30T04:55:02.822Z,29.1
2024-03-30T04:56:05.245Z,29.1
2024-03-30T04:57:07.726Z,28.8
2024-03-30T04:58:10.184Z,28.8
2024-03-30T04:59:12.587Z,28.7
2024-03-30T05:00:14.974Z,28.8
2024-03-30T05:01:17.410Z,28.7
2024-03-30T05:02:19.851Z,28.8
2024-03-30T05:03:22.105Z,28.9
2024-03-30T05:04:25.304Z,28.9
2024-03-30T05:05:27.732Z,29
2024-03-30T05:06:30.146Z,29.1
2024-03-30T05:07:32.579Z,29.2
2024-03-30T05:08:35.013Z,29.1
2024-03-30T05:09:37.406Z,28.9
2024-03-30T05:10:39.840Z,28.7
2024-03-30T05:11:42.170Z,28.8
2024-03-30T05:12:44.590Z,28.8
2024-03-30T05:13:47.024Z,28.8
2024-03-30T05:14:49.471Z,28.7
2024-03-30T05:15:51.869Z,28.7
2024-03-30T05:16:54.278Z,28.6
2024-03-30T05:17:56.724Z,28.5
2024-03-30T05:18:59.263Z,28.6
2024-03-30T05:20:01.732Z,28.8
2024-03-30T05:21:04.235Z,28.7
2024-03-30T05:22:06.650Z,29
2024-03-30T05:23:09.061Z,29
2024-03-30T05:24:11.459Z,28.8
2024-03-30T05:25:13.880Z,28.6
2024-03-30T05:26:16.151Z,28.4
2024-03-30T05:27:18.645Z,28.5
2024-03-30T05:28:21.067Z,28.6
2024-03-30T05:29:23.489Z,28.7
2024-03-30T05:30:25.964Z,28.8
2024-03-30T05:31:28.386Z,28.8
2024-03-30T05:32:30.730Z,28.6
2024-03-30T05:33:33.160Z,28.8
2024-03-30T05:34:35.558Z,28.9
2024-03-30T05:35:38.019Z,29
2024-03-30T05:36:40.235Z,29.1
2024-03-30T05:37:42.455Z,29.1
2024-03-30T05:38:44.898Z,29.2
2024-03-30T05:39:47.335Z,29.3
2024-03-30T05:40:49.758Z,29
2024-03-30T05:41:52.205Z,28.9
2024-03-30T05:42:54.626Z,28.8
2024-03-30T05:43:57.067Z,28.8
2024-03-30T05:44:59.375Z,29.2
2024-03-30T05:46:01.989Z,29.4
2024-03-30T05:47:04.419Z,29.2
2024-03-30T05:48:06.936Z,29.1
2024-03-30T05:49:09.402Z,28.9
2024-03-30T05:50:11.913Z,28.9
2024-03-30T05:51:14.377Z,29.1
2024-03-30T05:52:16.784Z,29.1
2024-03-30T05:53:19.232Z,29.3
2024-03-30T05:54:21.672Z,29.3
2024-03-30T05:55:23.967Z,29.3
2024-03-30T05:56:26.373Z,29.2
2024-03-30T05:57:28.845Z,29
2024-03-30T05:58:31.327Z,28.9
2024-03-30T05:59:33.792Z,29
2024-03-30T06:00:36.299Z,29.1
2024-03-30T06:01:38.727Z,29.1
2024-03-30T06:02:41.190Z,29.2
2024-03-30T06:03:43.649Z,29.1
2024-03-30T06:04:46.088Z,29.1
2024-03-30T06:05:48.528Z,29.1
2024-03-30T06:06:50.968Z,29
2024-03-30T06:07:53.372Z,29.2
2024-03-30T06:08:55.583Z,29
2024-03-30T06:09:58.103Z,28.8
2024-03-30T06:11:00.637Z,28.6
2024-03-30T06:12:02.995Z,28.6
2024-03-30T06:13:05.582Z,28.6
2024-03-30T06:14:07.993Z,28.5
2024-03-30T06:15:10.186Z,28.4
2024-03-30T06:16:12.419Z,28.6
2024-03-30T06:17:14.836Z,28.5
2024-03-30T06:18:17.250Z,28.5
2024-03-30T06:19:19.712Z,28.4
2024-03-30T06:20:22.163Z,28.6
2024-03-30T06:21:24.660Z,28.7
2024-03-30T06:22:27.114Z,28.6
2024-03-30T06:23:29.524Z,28.7
2024-03-30T06:24:31.959Z,28.7
2024-03-30T06:25:34.473Z,28.7
2024-03-30T06:26:36.923Z,28.5
2024-03-30T06:27:39.337Z,28.5
2024-03-30T06:28:41.793Z,28.5
2024-03-30T06:29:44.181Z,28.8
2024-03-30T06:30:46.585Z,28.8
2024-03-30T06:31:48.983Z,29
2024-03-30T06:32:51.395Z,29
2024-03-30T06:33:53.800Z,28.7
2024-03-30T06:34:56.234Z,28.6
2024-03-30T06:35:58.662Z,28.6
2024-03-30T06:37:01.159Z,28.5
2024-03-30T06:38:03.604Z,28.5
2024-03-30T06:39:05.853Z,28.4
2024-03-30T06:40:08.317Z,28.5
2024-03-30T06:41:10.744Z,28.4
2024-03-30T06:42:13.137Z,28.6
2024-03-30T06:43:15.342Z,28.4
2024-03-30T06:44:17.772Z,28.5
2024-03-30T06:45:20.179Z,28.6
2024-03-30T06:46:22.590Z,28.6
2024-03-30T06:47:25.053Z,28.7
2024-03-30T06:48:27.703Z,28.8
2024-03-30T06:49:30.101Z,28.8
2024-03-30T06:50:32.521Z,28.7
2024-03-30T06:51:34.770Z,28.9
2024-03-30T06:52:36.799Z,29
2024-03-30T06:53:39.244Z,28.8
2024-03-30T06:54:41.722Z,28.9
2024-03-30T06:55:44.131Z,28.6
2024-03-30T06:56:46.560Z,28.5
2024-03-30T06:57:48.965Z,28.6
2024-03-30T06:58:51.395Z,28.5
2024-03-30T06:59:53.896Z,28.4
2024-03-30T07:00:56.369Z,28.8
2024-03-30T07:02:00.904Z,29
2024-03-30T07:03:03.990Z,7
2024-03-30T07:04:06.536Z,11.2
2024-03-30T07:05:08.966Z,14.5
2024-03-30T07:06:11.374Z,17.2
2024-03-30T07:07:15.830Z,19.6
2024-03-30T07:08:18.955Z,6.8
2024-03-30T07:09:21.390Z,11.1
2024-03-30T07:10:23.871Z,14.5
2024-03-30T07:11:26.330Z,17
2024-03-30T07:12:29.571Z,19.2
2024-03-30T07:13:35.240Z,7
2024-03-30T07:14:37.674Z,11.3
2024-03-30T07:15:40.206Z,14.6
2024-03-30T07:17:11.706Z,17.3
2024-03-30T07:17:47.795Z,7.1
2024-03-30T07:18:50.248Z,11.2
2024-03-30T07:19:53.923Z,14.9
2024-03-30T07:20:56.368Z,17.7
2024-03-30T07:21:58.819Z,19.6
2024-03-30T07:23:01.031Z,21.3
2024-03-30T07:24:03.478Z,22.9
2024-03-30T07:25:06.120Z,24.1
2024-03-30T07:26:08.547Z,25.1
2024-03-30T07:27:10.762Z,25.9
2024-03-30T07:28:13.160Z,26.6
2024-03-30T07:29:15.591Z,27
2024-03-30T07:30:17.796Z,27.3
2024-03-30T07:31:20.240Z,27.7
2024-03-30T07:32:22.643Z,27.9
2024-03-30T07:33:24.921Z,27.8
2024-03-30T07:34:27.418Z,28.1
2024-03-30T07:35:29.693Z,28.2
2024-03-30T07:36:32.116Z,28.4
2024-03-30T07:37:34.554Z,28.3
2024-03-30T07:38:36.966Z,28.4
2024-03-30T07:39:39.370Z,28.5
2024-03-30T07:40:41.825Z,28.3
2024-03-30T07:41:44.245Z,28.5
2024-03-30T07:42:46.544Z,28.6
2024-03-30T07:43:48.974Z,28.6
2024-03-30T07:44:51.355Z,28.5
2024-03-30T07:45:53.746Z,28.5
2024-03-30T07:46:56.220Z,28.5
2024-03-30T07:47:59.550Z,28.5
2024-03-30T07:49:01.883Z,28.6
2024-03-30T07:50:04.313Z,28.4
2024-03-30T07:51:06.736Z,28.5
2024-03-30T07:52:09.034Z,28.5
2024-03-30T07:53:11.221Z,28.6
2024-03-30T07:54:13.660Z,28.6
2024-03-30T07:55:15.882Z,28.8
2024-03-30T07:56:18.301Z,28.8
2024-03-30T07:57:20.527Z,28.9
2024-03-30T07:58:22.718Z,29.1
2024-03-30T07:59:25.167Z,29.1
2024-03-30T08:00:27.726Z,29.2
2024-03-30T08:01:30.291Z,29.4
2024-03-30T08:02:32.751Z,29.1
2024-03-30T08:03:34.973Z,29.1
2024-03-30T08:04:37.427Z,28.9
2024-03-30T08:05:39.676Z,29
2024-03-30T08:06:41.913Z,28.9
2024-03-30T08:07:44.320Z,28.9
2024-03-30T08:08:46.713Z,28.7
2024-03-30T08:09:48.917Z,28.9
2024-03-30T08:10:51.144Z,28.7
2024-03-30T08:11:53.689Z,28.9
2024-03-30T08:12:56.134Z,28.9
2024-03-30T08:13:58.616Z,28.7
2024-03-30T08:15:01.052Z,28.5
2024-03-30T08:16:03.677Z,28.7
2024-03-30T08:17:06.090Z,28.7
2024-03-30T08:18:08.588Z,28.9
2024-03-30T08:19:11.075Z,28.9
2024-03-30T08:20:13.480Z,28.9
2024-03-30T08:21:15.988Z,29.1
2024-03-30T08:22:18.423Z,28.9
2024-03-30T08:23:20.844Z,28.9
2024-03-30T08:24:23.131Z,29
2024-03-30T08:25:25.569Z,28.8
2024-03-30T08:26:28.058Z,28.8
2024-03-30T08:27:30.508Z,28.8
2024-03-30T08:28:32.922Z,28.9
2024-03-30T08:29:35.336Z,28.7
2024-03-30T08:30:37.753Z,29
2024-03-30T08:31:40.151Z,28.9
2024-03-30T08:32:42.411Z,28.9
2024-03-30T08:33:44.839Z,28.8
2024-03-30T08:34:47.291Z,28.6
2024-03-30T08:35:49.697Z,28.7
2024-03-30T08:36:52.157Z,28.8
2024-03-30T08:37:54.590Z,28.9
2024-03-30T08:38:56.817Z,28.9
2024-03-30T08:39:59.023Z,28.9
2024-03-30T08:41:01.434Z,28.9
2024-03-30T08:42:03.887Z,29.2
2024-03-30T08:43:06.219Z,29.1
2024-03-30T08:44:08.482Z,29.2
2024-03-30T08:45:10.889Z,29.3
2024-03-30T08:46:13.268Z,29.1
2024-03-30T08:47:15.706Z,28.9
2024-03-30T08:48:17.906Z,28.8
2024-03-30T08:49:20.364Z,29
2024-03-30T08:50:22.786Z,29.2
2024-03-30T08:51:25.200Z,29.3
2024-03-30T08:52:27.658Z,29.2
2024-03-30T08:53:30.067Z,29.3
2024-03-30T08:54:32.287Z,29.4
2024-03-30T08:55:34.506Z,29.1
2024-03-30T08:56:36.923Z,29.2
2024-03-30T08:57:39.456Z,28.9
2024-03-30T08:58:41.916Z,29.2
2024-03-30T08:59:44.147Z,29.1
2024-03-30T09:00:46.535Z,29.3
2024-03-30T09:01:48.956Z,29.2
2024-03-30T09:02:52.165Z,28.9
2024-03-30T09:03:54.573Z,29.1
2024-03-30T09:04:57.023Z,29.1
2024-03-30T09:06:01.497Z,29
2024-03-30T09:07:03.970Z,28.8
2024-03-30T09:08:06.407Z,28.7
2024-03-30T09:09:08.772Z,28.6
2024-03-30T09:10:11.282Z,28.5
2024-03-30T09:11:13.539Z,28.6
2024-03-30T09:12:15.955Z,28.7
2024-03-30T09:13:18.405Z,28.7
2024-03-30T09:14:20.845Z,29
2024-03-30T09:15:23.284Z,29
2024-03-30T09:16:25.712Z,28.8
2024-03-30T09:17:28.269Z,28.8
2024-03-30T09:18:30.849Z,28.7
2024-03-30T09:19:33.365Z,28.7
2024-03-30T09:20:35.796Z,28.5
2024-03-30T09:21:38.021Z,28.4
2024-03-30T09:22:40.426Z,28.5
2024-03-30T09:23:42.846Z,28.5
2024-03-30T09:24:45.246Z,28.4
2024-03-30T09:25:47.674Z,28.2
2024-03-30T09:26:50.070Z,28.5
2024-03-30T09:27:52.477Z,28.5
2024-03-30T09:28:54.887Z,28.5
2024-03-30T09:29:57.300Z,28.6
2024-03-30T09:30:59.718Z,28.7
2024-03-30T09:32:01.960Z,29
2024-03-30T09:33:04.375Z,29
2024-03-30T09:34:06.870Z,29
2024-03-30T09:35:09.277Z,28.8
2024-03-30T09:36:11.549Z,28.8
2024-03-30T09:37:13.966Z,28.7
2024-03-30T09:38:16.368Z,28.7
2024-03-30T09:39:18.816Z,29
2024-03-30T09:40:21.240Z,28.9
2024-03-30T09:41:23.748Z,29
2024-03-30T09:42:26.173Z,29.1
2024-03-30T09:43:28.570Z,29.1
2024-03-30T09:44:30.963Z,29
2024-03-30T09:45:33.712Z,28.8
2024-03-30T09:46:36.151Z,29
2024-03-30T09:47:38.573Z,29
2024-03-30T09:48:41.190Z,28.9
2024-03-30T09:49:43.584Z,28.8
2024-03-30T09:50:46.001Z,28.8
2024-03-30T09:51:48.791Z,29
2024-03-30T09:52:51.206Z,29.1
2024-03-30T09:53:53.764Z,29.2
2024-03-30T09:54:56.229Z,29.1
2024-03-30T09:55:58.630Z,29.2
2024-03-30T09:57:01.043Z,29.3
2024-03-30T09:58:03.499Z,29.4
2024-03-30T09:59:05.891Z,29.4
2024-03-30T10:00:08.321Z,29.1
2024-03-30T10:01:10.604Z,29.1
2024-03-30T10:02:13.044Z,29.1
2024-03-30T10:03:15.692Z,29.2
2024-03-30T10:04:17.915Z,28.9
2024-03-30T10:05:29.345Z,29.1
2024-03-30T10:06:25.349Z,7.2
2024-03-30T10:07:27.828Z,11.4
2024-03-30T10:08:30.246Z,14.6
2024-03-30T10:09:32.712Z,17.4
2024-03-30T10:10:34.938Z,19.7
2024-03-30T10:11:37.227Z,21.4
2024-03-30T10:12:39.616Z,23.1
2024-03-30T10:13:42.052Z,23.9
2024-03-30T10:14:44.222Z,25.1
2024-03-30T10:15:46.618Z,25.9
2024-03-30T10:16:49.082Z,26.6
2024-03-30T10:17:51.511Z,27.1
2024-03-30T10:18:53.956Z,27.7
2024-03-30T10:19:57.432Z,27.8
2024-03-30T10:20:59.711Z,27.9
2024-03-30T10:22:02.107Z,28.1
2024-03-30T10:23:04.367Z,28
2024-03-30T10:24:06.780Z,28
2024-03-30T10:25:09.216Z,28.3
2024-03-30T10:26:11.679Z,28.2
2024-03-30T10:27:14.091Z,28.4
2024-03-30T10:28:16.288Z,28.4
2024-03-30T10:29:18.780Z,28.5
2024-03-30T10:30:21.207Z,28.6
2024-03-30T10:31:23.634Z,28.7
2024-03-30T10:32:26.116Z,29
2024-03-30T10:33:28.512Z,29
2024-03-30T10:34:30.919Z,28.8
2024-03-30T10:35:33.351Z,28.8
2024-03-30T10:36:35.772Z,28.7
2024-03-30T10:37:38.163Z,29
2024-03-30T10:38:40.716Z,29
2024-03-30T10:39:43.136Z,29.2
2024-03-30T10:40:45.540Z,29.4
2024-03-30T10:41:47.952Z,29.1
2024-03-30T10:42:50.387Z,29
2024-03-30T10:43:52.780Z,29.1
2024-03-30T10:44:55.265Z,28.9
2024-03-30T10:45:57.478Z,28.9
2024-03-30T10:46:59.883Z,29
2024-03-30T10:48:02.334Z,29.1
2024-03-30T10:49:04.774Z,29.2
2024-03-30T10:50:07.227Z,28.9
2024-03-30T10:51:09.679Z,28.8
2024-03-30T10:52:12.348Z,29
2024-03-30T10:53:14.737Z,28.8
2024-03-30T10:54:17.183Z,28.8
2024-03-30T10:55:19.370Z,28.8
2024-03-30T10:56:22.892Z,28.7
2024-03-30T10:57:25.494Z,28.7
2024-03-30T10:58:27.888Z,28.7
2024-03-30T10:59:30.295Z,28.9
2024-03-30T11:00:32.779Z,28.9
2024-03-30T11:01:35.479Z,28.8
2024-03-30T11:02:37.911Z,28.9
2024-03-30T11:03:40.442Z,29
2024-03-30T11:04:42.895Z,29.1
2024-03-30T11:05:45.323Z,28.9
2024-03-30T11:06:47.758Z,28.9
2024-03-30T11:07:50.249Z,28.8
2024-03-30T11:08:52.647Z,28.9
2024-03-30T11:09:55.085Z,28.9
2024-03-30T11:10:57.479Z,28.9
2024-03-30T11:11:59.915Z,28.9
2024-03-30T11:13:02.158Z,28.8
2024-03-30T11:14:06.224Z,28.9
2024-03-30T11:15:08.641Z,29
2024-03-30T11:16:11.260Z,29
2024-03-30T11:17:13.745Z,29
2024-03-30T11:18:16.849Z,28.8
2024-03-30T11:19:23.455Z,7
2024-03-30T11:20:25.703Z,11.3
2024-03-30T11:21:28.155Z,14.5
2024-03-30T11:22:30.343Z,17.1
2024-03-30T11:23:32.778Z,19.3
2024-03-30T11:24:35.283Z,21.1
2024-03-30T11:25:37.749Z,22.7
2024-03-30T11:26:40.206Z,24.1
2024-03-30T11:27:42.599Z,25
2024-03-30T11:28:45.014Z,26
2024-03-30T11:29:47.423Z,26.4
2024-03-30T11:30:53.987Z,27
2024-03-30T11:31:55.000Z,7.1
2024-03-30T11:32:57.421Z,11.3
2024-03-30T11:33:59.665Z,14.9
2024-03-30T11:35:02.984Z,17.6
2024-03-30T11:36:09.776Z,6.8
2024-03-30T11:37:12.333Z,10.9
2024-03-30T11:38:17.010Z,14.5
2024-03-30T11:39:19.928Z,7.2
2024-03-30T11:40:24.381Z,11.5
2024-03-30T11:41:27.039Z,14.8
2024-03-30T11:42:29.545Z,17.5
2024-03-30T11:43:31.942Z,19.9
2024-03-30T11:44:34.339Z,21.8
2024-03-30T11:45:36.765Z,23.1
2024-03-30T11:46:39.056Z,24.1
2024-03-30T11:47:41.490Z,25.1
2024-03-30T11:48:43.982Z,25.8
2024-03-30T11:49:46.204Z,26.3
2024-03-30T11:50:48.647Z,26.5
2024-03-30T11:51:51.067Z,27.1
2024-03-30T11:52:53.522Z,27.3
2024-03-30T11:53:55.928Z,27.5
2024-03-30T11:54:58.217Z,27.8
2024-03-30T11:56:00.621Z,27.9
2024-03-30T11:57:09.896Z,28.2
2024-03-30T11:58:08.276Z,7
2024-03-30T11:59:10.458Z,11
2024-03-30T12:00:12.925Z,14.3
2024-03-30T12:01:15.451Z,17
2024-03-30T12:02:17.659Z,19.4
2024-03-30T12:03:20.107Z,21.2
2024-03-30T12:04:22.678Z,22.7
2024-03-30T12:05:25.113Z,24.1
2024-03-30T12:06:27.538Z,25
2024-03-30T12:07:29.985Z,25.9
2024-03-30T12:08:32.432Z,26.6
2024-03-30T12:09:34.689Z,27.3
2024-03-30T12:10:37.093Z,27.7
2024-03-30T12:11:39.658Z,27.9
2024-03-30T12:12:42.140Z,28.2
2024-03-30T12:13:44.529Z,28.5
2024-03-30T12:14:46.914Z,28.6
2024-03-30T12:15:49.340Z,28.8
2024-03-30T12:16:51.741Z,28.9
2024-03-30T12:17:53.976Z,28.8
2024-03-30T12:18:56.427Z,28.8
2024-03-30T12:19:59.069Z,28.8
2024-03-30T12:21:01.740Z,28.9
2024-03-30T12:22:04.313Z,28.9
2024-03-30T12:23:06.736Z,29
2024-03-30T12:24:09.187Z,28.9
2024-03-30T12:25:11.710Z,28.6
2024-03-30T12:26:14.126Z,28.5
2024-03-30T12:27:16.548Z,28.9
2024-03-30T12:28:19.033Z,29
2024-03-30T12:29:28.563Z,29
2024-03-30T12:30:26.375Z,6.9
2024-03-30T12:31:28.921Z,11.1
2024-03-30T12:32:31.343Z,14.6
2024-03-30T12:33:33.811Z,17
2024-03-30T12:34:36.217Z,19
2024-03-30T12:35:38.943Z,21
2024-03-30T12:36:41.161Z,22.5
2024-03-30T12:37:43.624Z,23.6
2024-03-30T12:38:46.024Z,24.7
2024-03-30T12:39:48.526Z,25.4
2024-03-30T12:40:50.919Z,25.9
2024-03-30T12:41:53.129Z,26.4
2024-03-30T12:42:55.631Z,26.9
2024-03-30T12:43:58.086Z,27.2
2024-03-30T12:45:00.483Z,27.4
2024-03-30T12:46:02.911Z,27.8
2024-03-30T12:47:05.153Z,27.9
2024-03-30T12:48:07.567Z,27.9
2024-03-30T12:49:10.055Z,28.3
2024-03-30T12:50:12.476Z,28.4
2024-03-30T12:51:14.914Z,28.4
2024-03-30T12:52:17.348Z,28.6
2024-03-30T12:53:19.900Z,28.6
2024-03-30T12:54:22.304Z,28.5
2024-03-30T12:55:24.737Z,28.6
2024-03-30T12:56:28.879Z,28.8
2024-03-30T12:57:32.324Z,7.2
2024-03-30T12:58:34.706Z,11.4
2024-03-30T12:59:37.134Z,14.7
2024-03-30T13:00:39.592Z,17.1
2024-03-30T13:01:42.011Z,19.7
2024-03-30T13:02:44.456Z,21.4
2024-03-30T13:03:46.842Z,22.8
2024-03-30T13:04:49.248Z,23.8
2024-03-30T13:05:51.672Z,24.7
2024-03-30T13:07:02.030Z,25.5
2024-03-30T13:07:59.283Z,6.9
2024-03-30T13:09:01.722Z,11.2
2024-03-30T13:10:04.127Z,14.7
2024-03-30T13:11:06.838Z,17.3
2024-03-30T13:12:09.277Z,19.7
2024-03-30T13:13:11.626Z,21.5
2024-03-30T13:14:14.117Z,23.1
2024-03-30T13:15:16.560Z,24.3
2024-03-30T13:16:19.050Z,25.2
2024-03-30T13:17:21.354Z,25.9
2024-03-30T13:18:23.746Z,26.6
2024-03-30T13:19:26.181Z,27
2024-03-30T13:20:28.193Z,27.5
2024-03-30T13:21:30.839Z,27.7
2024-03-30T13:22:33.321Z,28
2024-03-30T13:23:35.735Z,28.1
2024-03-30T13:24:38.158Z,28.3
2024-03-30T13:25:40.600Z,28.3
2024-03-30T13:26:43.036Z,28.5
2024-03-30T13:27:45.419Z,28.5
2024-03-30T13:28:47.791Z,28.3
2024-03-30T13:29:50.203Z,28.2
2024-03-30T13:30:52.698Z,28.4
2024-03-30T13:31:55.219Z,28.4
2024-03-30T13:32:57.621Z,28.3
2024-03-30T13:34:00.042Z,28.4
2024-03-30T13:35:02.479Z,28.4
2024-03-30T13:36:05.695Z,28.6
2024-03-30T13:37:12.108Z,7.2
2024-03-30T13:38:14.684Z,11.2
2024-03-30T13:39:17.156Z,14.3
2024-03-30T13:40:19.620Z,17
2024-03-30T13:41:21.848Z,19.5
2024-03-30T13:42:24.092Z,21.3
2024-03-30T13:43:26.491Z,22.7
2024-03-30T13:44:28.882Z,23.7
2024-03-30T13:45:31.323Z,24.5
2024-03-30T13:46:33.792Z,25.3
2024-03-30T13:47:36.343Z,26.1
2024-03-30T13:48:38.749Z,26.7
2024-03-30T13:49:41.165Z,26.9
2024-03-30T13:50:43.389Z,27.5
2024-03-30T13:51:45.795Z,27.8
2024-03-30T13:52:48.224Z,28
2024-03-30T13:53:50.499Z,28.4
2024-03-30T13:54:52.912Z,28.7
2024-03-30T13:55:55.603Z,28.5
2024-03-30T13:56:57.866Z,28.5
2024-03-30T13:58:00.161Z,28.6